sensor_id;sensor_type;location;lat;lon;timestamp;temperature;humidity
14170;DHT22;63889;50.596;8.690;2023-04-03T00:01:31;7.20;99.90
14170;DHT22;63889;50.596;8.690;2023-04-03T00:03:57;7.20;99.90
14170;DHT22;63889;50.596;8.690;2023-04-03T00:06:23;7.20;99.90
14170;DHT22;63889;50.596;8.690;2023-04-03T00:08:50;7.20;99.90
14170;DHT22;63889;50.596;8.690;2023-04-03T00:11:16;7.20;99.90
14170;DHT22;63889;50.596;8.690;2023-04-03T00:13:42;7.20;99.90
14170;DHT22;63889;50.596;8.690;2023-04-03T00:16:09;7.20;99.90
14170;DHT22;63889;50.596;8.690;2023-04-03T00:18:36;7.20;99.90
14170;DHT22;63889;50.596;8.690;2023-04-03T00:21:03;7.20;99.90
14170;DHT22;63889;50.596;8.690;2023-04-03T00:23:28;7.20;99.90
14170;DHT22;63889;50.596;8.690;2023-04-03T00:25:54;7.30;99.90
14170;DHT22;63889;50.596;8.690;2023-04-03T00:28:20;7.20;99.90
14170;DHT22;63889;50.596;8.690;2023-04-03T00:30:48;7.20;99.90
14170;DHT22;63889;50.596;8.690;2023-04-03T00:33:14;7.10;99.90
14170;DHT22;63889;50.596;8.690;2023-04-03T00:35:39;6.90;99.90
14170;DHT22;63889;50.596;8.690;2023-04-03T00:38:09;7.10;99.90
14170;DHT22;63889;50.596;8.690;2023-04-03T00:40:39;7.20;99.90
14170;DHT22;63889;50.596;8.690;2023-04-03T00:43:16;7.20;99.90
14170;DHT22;63889;50.596;8.690;2023-04-03T00:45:44;7.10;99.90
14170;DHT22;63889;50.596;8.690;2023-04-03T00:48:13;7.20;99.90
14170;DHT22;63889;50.596;8.690;2023-04-03T00:50:42;7.10;99.90
14170;DHT22;63889;50.596;8.690;2023-04-03T00:53:12;7.00;99.90
14170;DHT22;63889;50.596;8.690;2023-04-03T00:55:41;7.00;99.90
14170;DHT22;63889;50.596;8.690;2023-04-03T00:58:08;7.00;99.90
14170;DHT22;63889;50.596;8.690;2023-04-03T01:00:37;7.00;99.90
14170;DHT22;63889;50.596;8.690;2023-04-03T01:03:02;7.10;99.90
14170;DHT22;63889;50.596;8.690;2023-04-03T01:05:28;7.00;99.90
14170;DHT22;63889;50.596;8.690;2023-04-03T01:07:54;7.00;99.90
14170;DHT22;63889;50.596;8.690;2023-04-03T01:10:20;7.10;99.90
14170;DHT22;63889;50.596;8.690;2023-04-03T01:12:48;7.00;99.90
14170;DHT22;63889;50.596;8.690;2023-04-03T01:15:23;7.00;99.90
14170;DHT22;63889;50.596;8.690;2023-04-03T01:17:59;7.00;99.90
14170;DHT22;63889;50.596;8.690;2023-04-03T01:25:46;6.70;99.90
14170;DHT22;63889;50.596;8.690;2023-04-03T01:28:18;6.80;99.90
14170;DHT22;63889;50.596;8.690;2023-04-03T01:30:48;6.80;99.90
14170;DHT22;63889;50.596;8.690;2023-04-03T01:33:15;6.80;99.90
14170;DHT22;63889;50.596;8.690;2023-04-03T01:35:41;6.80;99.90
14170;DHT22;63889;50.596;8.690;2023-04-03T01:38:06;6.80;99.90
14170;DHT22;63889;50.596;8.690;2023-04-03T01:40:32;6.80;99.90
14170;DHT22;63889;50.596;8.690;2023-04-03T01:42:58;6.80;99.90
14170;DHT22;63889;50.596;8.690;2023-04-03T01:45:23;6.70;99.90
14170;DHT22;63889;50.596;8.690;2023-04-03T01:47:49;6.60;99.90
14170;DHT22;63889;50.596;8.690;2023-04-03T01:50:15;6.70;99.90
14170;DHT22;63889;50.596;8.690;2023-04-03T01:52:40;6.60;99.90
14170;DHT22;63889;50.596;8.690;2023-04-03T01:55:06;6.50;99.90
14170;DHT22;63889;50.596;8.690;2023-04-03T01:57:32;6.50;99.90
14170;DHT22;63889;50.596;8.690;2023-04-03T01:59:57;6.60;99.90
14170;DHT22;63889;50.596;8.690;2023-04-03T02:02:23;6.50;99.90
14170;DHT22;63889;50.596;8.690;2023-04-03T02:04:48;6.40;99.90
14170;DHT22;63889;50.596;8.690;2023-04-03T02:07:14;6.30;99.90
14170;DHT22;63889;50.596;8.690;2023-04-03T02:09:39;6.30;99.90
14170;DHT22;63889;50.596;8.690;2023-04-03T02:12:05;6.20;99.90
14170;DHT22;63889;50.596;8.690;2023-04-03T02:14:31;6.30;99.90
14170;DHT22;63889;50.596;8.690;2023-04-03T02:16:56;6.10;99.90
14170;DHT22;63889;50.596;8.690;2023-04-03T02:19:22;6.20;99.90
14170;DHT22;63889;50.596;8.690;2023-04-03T02:21:48;6.20;99.90
14170;DHT22;63889;50.596;8.690;2023-04-03T02:24:13;6.20;99.90
14170;DHT22;63889;50.596;8.690;2023-04-03T02:26:39;6.20;99.90
14170;DHT22;63889;50.596;8.690;2023-04-03T02:29:05;6.00;99.90
14170;DHT22;63889;50.596;8.690;2023-04-03T02:31:31;6.00;99.90
14170;DHT22;63889;50.596;8.690;2023-04-03T02:33:57;5.90;99.90
14170;DHT22;63889;50.596;8.690;2023-04-03T02:36:22;5.90;99.90
14170;DHT22;63889;50.596;8.690;2023-04-03T02:38:48;5.80;99.90
14170;DHT22;63889;50.596;8.690;2023-04-03T02:41:13;5.70;99.90
14170;DHT22;63889;50.596;8.690;2023-04-03T02:43:39;5.80;99.90
14170;DHT22;63889;50.596;8.690;2023-04-03T02:46:05;5.70;99.90
14170;DHT22;63889;50.596;8.690;2023-04-03T02:48:32;5.80;99.90
14170;DHT22;63889;50.596;8.690;2023-04-03T02:50:57;5.90;99.90
14170;DHT22;63889;50.596;8.690;2023-04-03T02:53:23;5.80;99.90
14170;DHT22;63889;50.596;8.690;2023-04-03T02:55:48;5.60;99.90
14170;DHT22;63889;50.596;8.690;2023-04-03T02:58:14;5.60;99.90
14170;DHT22;63889;50.596;8.690;2023-04-03T03:00:40;5.50;99.90
14170;DHT22;63889;50.596;8.690;2023-04-03T03:03:06;5.40;99.90
14170;DHT22;63889;50.596;8.690;2023-04-03T03:05:32;5.40;99.90
14170;DHT22;63889;50.596;8.690;2023-04-03T03:07:57;5.20;99.90
14170;DHT22;63889;50.596;8.690;2023-04-03T03:10:23;5.10;99.90
14170;DHT22;63889;50.596;8.690;2023-04-03T03:12:49;5.20;99.90
14170;DHT22;63889;50.596;8.690;2023-04-03T03:15:15;5.00;99.90
14170;DHT22;63889;50.596;8.690;2023-04-03T03:17:41;4.80;99.90
14170;DHT22;63889;50.596;8.690;2023-04-03T03:20:07;4.70;99.90
14170;DHT22;63889;50.596;8.690;2023-04-03T03:22:33;4.70;99.90
14170;DHT22;63889;50.596;8.690;2023-04-03T03:24:59;4.60;99.90
14170;DHT22;63889;50.596;8.690;2023-04-03T03:27:24;4.50;99.90
14170;DHT22;63889;50.596;8.690;2023-04-03T03:29:50;4.60;99.90
14170;DHT22;63889;50.596;8.690;2023-04-03T03:32:16;4.70;99.90
14170;DHT22;63889;50.596;8.690;2023-04-03T03:34:41;4.50;99.90
14170;DHT22;63889;50.596;8.690;2023-04-03T03:37:07;4.70;99.90
14170;DHT22;63889;50.596;8.690;2023-04-03T03:39:32;4.80;99.90
14170;DHT22;63889;50.596;8.690;2023-04-03T03:41:58;4.80;99.90
14170;DHT22;63889;50.596;8.690;2023-04-03T03:44:23;5.00;99.90
14170;DHT22;63889;50.596;8.690;2023-04-03T03:46:49;5.20;99.90
14170;DHT22;63889;50.596;8.690;2023-04-03T03:49:15;5.20;99.90
14170;DHT22;63889;50.596;8.690;2023-04-03T03:51:40;5.30;99.90
14170;DHT22;63889;50.596;8.690;2023-04-03T03:54:06;5.30;99.90
14170;DHT22;63889;50.596;8.690;2023-04-03T03:56:33;5.30;99.90
14170;DHT22;63889;50.596;8.690;2023-04-03T03:58:58;5.30;99.90
14170;DHT22;63889;50.596;8.690;2023-04-03T04:01:24;5.20;99.90
14170;DHT22;63889;50.596;8.690;2023-04-03T04:03:50;5.10;99.90
14170;DHT22;63889;50.596;8.690;2023-04-03T04:06:15;5.30;99.90
14170;DHT22;63889;50.596;8.690;2023-04-03T04:08:41;5.20;99.90
14170;DHT22;63889;50.596;8.690;2023-04-03T04:11:07;5.20;99.90
14170;DHT22;63889;50.596;8.690;2023-04-03T04:13:33;5.10;99.90
14170;DHT22;63889;50.596;8.690;2023-04-03T04:15:59;5.20;99.90
14170;DHT22;63889;50.596;8.690;2023-04-03T04:18:25;5.20;99.90
14170;DHT22;63889;50.596;8.690;2023-04-03T04:20:50;5.10;99.90
14170;DHT22;63889;50.596;8.690;2023-04-03T04:23:17;5.00;99.90
14170;DHT22;63889;50.596;8.690;2023-04-03T04:25:47;5.00;99.90
14170;DHT22;63889;50.596;8.690;2023-04-03T04:28:14;5.00;99.90
14170;DHT22;63889;50.596;8.690;2023-04-03T04:30:40;4.90;99.90
14170;DHT22;63889;50.596;8.690;2023-04-03T04:33:06;4.90;99.90
14170;DHT22;63889;50.596;8.690;2023-04-03T04:35:32;4.90;99.90
14170;DHT22;63889;50.596;8.690;2023-04-03T04:37:58;4.90;99.90
14170;DHT22;63889;50.596;8.690;2023-04-03T04:40:23;4.70;99.90
14170;DHT22;63889;50.596;8.690;2023-04-03T04:42:49;4.70;99.90
14170;DHT22;63889;50.596;8.690;2023-04-03T04:45:15;4.70;99.90
14170;DHT22;63889;50.596;8.690;2023-04-03T04:47:40;4.70;99.90
14170;DHT22;63889;50.596;8.690;2023-04-03T04:50:06;4.80;99.90
14170;DHT22;63889;50.596;8.690;2023-04-03T04:52:32;4.80;99.90
14170;DHT22;63889;50.596;8.690;2023-04-03T04:54:58;4.70;99.90
14170;DHT22;63889;50.596;8.690;2023-04-03T04:57:23;4.70;99.90
14170;DHT22;63889;50.596;8.690;2023-04-03T04:59:49;4.70;99.90
14170;DHT22;63889;50.596;8.690;2023-04-03T05:02:15;4.70;99.90
14170;DHT22;63889;50.596;8.690;2023-04-03T05:04:40;4.60;99.90
14170;DHT22;63889;50.596;8.690;2023-04-03T05:07:06;4.60;99.90
14170;DHT22;63889;50.596;8.690;2023-04-03T05:09:31;4.60;99.90
14170;DHT22;63889;50.596;8.690;2023-04-03T05:11:57;4.60;99.90
14170;DHT22;63889;50.596;8.690;2023-04-03T05:14:22;4.60;99.90
14170;DHT22;63889;50.596;8.690;2023-04-03T05:16:48;4.60;99.90
14170;DHT22;63889;50.596;8.690;2023-04-03T05:19:18;4.60;99.90
14170;DHT22;63889;50.596;8.690;2023-04-03T05:21:43;4.50;99.90
14170;DHT22;63889;50.596;8.690;2023-04-03T05:24:09;4.50;99.90
14170;DHT22;63889;50.596;8.690;2023-04-03T05:26:35;4.50;99.90
14170;DHT22;63889;50.596;8.690;2023-04-03T05:29:00;4.50;99.90
14170;DHT22;63889;50.596;8.690;2023-04-03T05:31:26;4.40;99.90
14170;DHT22;63889;50.596;8.690;2023-04-03T05:33:55;4.40;99.90
14170;DHT22;63889;50.596;8.690;2023-04-03T05:36:20;4.30;99.90
14170;DHT22;63889;50.596;8.690;2023-04-03T05:38:46;4.40;99.90
14170;DHT22;63889;50.596;8.690;2023-04-03T05:41:13;4.40;99.90
14170;DHT22;63889;50.596;8.690;2023-04-03T05:43:39;4.30;99.90
14170;DHT22;63889;50.596;8.690;2023-04-03T05:46:11;4.20;99.90
14170;DHT22;63889;50.596;8.690;2023-04-03T05:48:37;4.30;99.90
14170;DHT22;63889;50.596;8.690;2023-04-03T05:51:04;4.40;99.90
14170;DHT22;63889;50.596;8.690;2023-04-03T05:53:32;4.50;99.90
14170;DHT22;63889;50.596;8.690;2023-04-03T05:55:58;4.40;99.90
14170;DHT22;63889;50.596;8.690;2023-04-03T05:58:24;4.30;99.90
14170;DHT22;63889;50.596;8.690;2023-04-03T06:00:49;4.10;99.90
14170;DHT22;63889;50.596;8.690;2023-04-03T06:03:15;4.00;99.90
14170;DHT22;63889;50.596;8.690;2023-04-03T06:05:42;4.10;99.90
14170;DHT22;63889;50.596;8.690;2023-04-03T06:08:07;3.90;99.90
14170;DHT22;63889;50.596;8.690;2023-04-03T06:10:34;4.00;99.90
14170;DHT22;63889;50.596;8.690;2023-04-03T06:13:00;4.10;99.90
14170;DHT22;63889;50.596;8.690;2023-04-03T06:15:26;4.10;99.90
14170;DHT22;63889;50.596;8.690;2023-04-03T06:17:52;4.00;99.90
14170;DHT22;63889;50.596;8.690;2023-04-03T06:20:18;4.10;99.90
14170;DHT22;63889;50.596;8.690;2023-04-03T06:22:43;4.00;99.90
14170;DHT22;63889;50.596;8.690;2023-04-03T06:25:09;4.00;99.90
14170;DHT22;63889;50.596;8.690;2023-04-03T06:27:35;3.90;99.90
14170;DHT22;63889;50.596;8.690;2023-04-03T06:30:01;3.80;99.90
14170;DHT22;63889;50.596;8.690;2023-04-03T06:32:26;3.70;99.90
14170;DHT22;63889;50.596;8.690;2023-04-03T06:34:52;3.90;99.90
14170;DHT22;63889;50.596;8.690;2023-04-03T06:37:20;3.90;99.90
14170;DHT22;63889;50.596;8.690;2023-04-03T06:39:47;3.80;99.90
14170;DHT22;63889;50.596;8.690;2023-04-03T06:42:12;3.70;99.90
14170;DHT22;63889;50.596;8.690;2023-04-03T06:44:38;3.90;99.90
14170;DHT22;63889;50.596;8.690;2023-04-03T06:47:04;4.10;99.90
14170;DHT22;63889;50.596;8.690;2023-04-03T06:49:30;4.20;99.90
14170;DHT22;63889;50.596;8.690;2023-04-03T06:51:55;4.10;99.90
14170;DHT22;63889;50.596;8.690;2023-04-03T06:54:22;4.00;99.90
14170;DHT22;63889;50.596;8.690;2023-04-03T06:56:47;4.20;99.90
14170;DHT22;63889;50.596;8.690;2023-04-03T06:59:13;4.10;99.90
14170;DHT22;63889;50.596;8.690;2023-04-03T07:01:40;4.20;99.90
14170;DHT22;63889;50.596;8.690;2023-04-03T07:04:06;4.10;99.90
14170;DHT22;63889;50.596;8.690;2023-04-03T07:06:31;4.00;99.90
14170;DHT22;63889;50.596;8.690;2023-04-03T07:08:58;3.90;99.90
14170;DHT22;63889;50.596;8.690;2023-04-03T07:11:24;3.90;99.90
14170;DHT22;63889;50.596;8.690;2023-04-03T07:13:51;4.10;99.90
14170;DHT22;63889;50.596;8.690;2023-04-03T07:16:17;4.30;99.90
14170;DHT22;63889;50.596;8.690;2023-04-03T07:18:42;4.30;99.90
14170;DHT22;63889;50.596;8.690;2023-04-03T07:21:08;4.30;99.90
14170;DHT22;63889;50.596;8.690;2023-04-03T07:23:33;4.40;99.90
14170;DHT22;63889;50.596;8.690;2023-04-03T07:25:59;4.60;99.90
14170;DHT22;63889;50.596;8.690;2023-04-03T07:28:25;4.70;99.90
14170;DHT22;63889;50.596;8.690;2023-04-03T07:31:00;4.90;99.90
14170;DHT22;63889;50.596;8.690;2023-04-03T07:33:26;4.90;99.90
14170;DHT22;63889;50.596;8.690;2023-04-03T07:35:52;5.00;99.90
14170;DHT22;63889;50.596;8.690;2023-04-03T07:38:17;5.10;99.90
14170;DHT22;63889;50.596;8.690;2023-04-03T07:40:47;5.00;99.90
14170;DHT22;63889;50.596;8.690;2023-04-03T07:43:17;4.80;99.90
14170;DHT22;63889;50.596;8.690;2023-04-03T07:45:43;4.90;99.90
14170;DHT22;63889;50.596;8.690;2023-04-03T07:48:10;4.90;99.90
14170;DHT22;63889;50.596;8.690;2023-04-03T07:50:36;4.90;99.90
14170;DHT22;63889;50.596;8.690;2023-04-03T07:53:02;5.00;99.90
14170;DHT22;63889;50.596;8.690;2023-04-03T07:55:28;5.00;99.90
14170;DHT22;63889;50.596;8.690;2023-04-03T07:57:53;5.00;99.90
14170;DHT22;63889;50.596;8.690;2023-04-03T08:00:19;5.10;99.90
14170;DHT22;63889;50.596;8.690;2023-04-03T08:02:45;5.00;99.90
14170;DHT22;63889;50.596;8.690;2023-04-03T08:05:16;5.00;99.90
14170;DHT22;63889;50.596;8.690;2023-04-03T08:07:42;4.90;99.90
14170;DHT22;63889;50.596;8.690;2023-04-03T08:10:08;4.90;99.90
14170;DHT22;63889;50.596;8.690;2023-04-03T08:12:34;5.10;99.90
14170;DHT22;63889;50.596;8.690;2023-04-03T08:15:00;5.30;99.90
14170;DHT22;63889;50.596;8.690;2023-04-03T08:17:26;5.30;99.90
14170;DHT22;63889;50.596;8.690;2023-04-03T08:19:52;5.30;99.90
14170;DHT22;63889;50.596;8.690;2023-04-03T08:22:17;5.40;99.90
14170;DHT22;63889;50.596;8.690;2023-04-03T08:24:43;5.40;99.90
14170;DHT22;63889;50.596;8.690;2023-04-03T08:27:09;5.40;99.90
14170;DHT22;63889;50.596;8.690;2023-04-03T08:29:35;5.50;99.90
14170;DHT22;63889;50.596;8.690;2023-04-03T08:32:03;5.60;99.90
14170;DHT22;63889;50.596;8.690;2023-04-03T08:34:29;5.50;99.90
14170;DHT22;63889;50.596;8.690;2023-04-03T08:36:54;5.60;99.90
14170;DHT22;63889;50.596;8.690;2023-04-03T08:39:20;5.80;99.90
14170;DHT22;63889;50.596;8.690;2023-04-03T08:41:46;5.90;99.90
14170;DHT22;63889;50.596;8.690;2023-04-03T08:44:38;5.90;99.90
14170;DHT22;63889;50.596;8.690;2023-04-03T08:47:22;6.00;99.90
14170;DHT22;63889;50.596;8.690;2023-04-03T08:49:57;6.10;99.90
14170;DHT22;63889;50.596;8.690;2023-04-03T08:52:58;6.10;99.90
14170;DHT22;63889;50.596;8.690;2023-04-03T08:55:55;6.20;99.90
14170;DHT22;63889;50.596;8.690;2023-04-03T08:58:29;6.40;99.90
14170;DHT22;63889;50.596;8.690;2023-04-03T09:03:23;6.30;99.90
14170;DHT22;63889;50.596;8.690;2023-04-03T09:06:06;6.20;99.90
14170;DHT22;63889;50.596;8.690;2023-04-03T09:08:50;5.90;99.90
14170;DHT22;63889;50.596;8.690;2023-04-03T09:11:40;5.60;99.90
14170;DHT22;63889;50.596;8.690;2023-04-03T09:17:00;5.80;99.90
14170;DHT22;63889;50.596;8.690;2023-04-03T09:19:41;6.20;99.90
14170;DHT22;63889;50.596;8.690;2023-04-03T09:24:39;6.70;99.90
14170;DHT22;63889;50.596;8.690;2023-04-03T09:27:10;6.80;99.90
14170;DHT22;63889;50.596;8.690;2023-04-03T09:29:40;6.90;99.90
14170;DHT22;63889;50.596;8.690;2023-04-03T09:32:29;7.00;99.90
14170;DHT22;63889;50.596;8.690;2023-04-03T09:34:59;7.20;99.90
14170;DHT22;63889;50.596;8.690;2023-04-03T09:37:40;7.10;99.90
14170;DHT22;63889;50.596;8.690;2023-04-03T09:42:53;6.90;99.90
14170;DHT22;63889;50.596;8.690;2023-04-03T09:45:27;7.10;99.90
14170;DHT22;63889;50.596;8.690;2023-04-03T09:50:53;7.50;99.90
14170;DHT22;63889;50.596;8.690;2023-04-03T09:53:35;7.40;99.90
14170;DHT22;63889;50.596;8.690;2023-04-03T09:56:47;7.20;99.90
14170;DHT22;63889;50.596;8.690;2023-04-03T10:01:33;7.50;99.90
14170;DHT22;63889;50.596;8.690;2023-04-03T10:04:12;7.60;99.90
14170;DHT22;63889;50.596;8.690;2023-04-03T10:06:43;7.70;99.90
14170;DHT22;63889;50.596;8.690;2023-04-03T10:12:11;7.60;99.90
14170;DHT22;63889;50.596;8.690;2023-04-03T10:14:40;7.40;99.90
14170;DHT22;63889;50.596;8.690;2023-04-03T10:20:02;7.40;99.90
14170;DHT22;63889;50.596;8.690;2023-04-03T10:22:40;7.30;99.90
14170;DHT22;63889;50.596;8.690;2023-04-03T10:25:37;7.50;99.90
14170;DHT22;63889;50.596;8.690;2023-04-03T10:28:10;7.80;99.90
14170;DHT22;63889;50.596;8.690;2023-04-03T10:33:38;8.30;99.90
14170;DHT22;63889;50.596;8.690;2023-04-03T10:36:22;8.40;99.90
14170;DHT22;63889;50.596;8.690;2023-04-03T10:39:08;8.60;99.90
14170;DHT22;63889;50.596;8.690;2023-04-03T10:41:52;8.40;99.90
14170;DHT22;63889;50.596;8.690;2023-04-03T10:46:55;8.30;99.50
14170;DHT22;63889;50.596;8.690;2023-04-03T10:52:07;8.50;99.90
14170;DHT22;63889;50.596;8.690;2023-04-03T10:54:43;8.80;99.90
14170;DHT22;63889;50.596;8.690;2023-04-03T10:57:12;9.00;99.80
14170;DHT22;63889;50.596;8.690;2023-04-03T10:59:44;9.10;99.10
14170;DHT22;63889;50.596;8.690;2023-04-03T11:02:33;9.10;99.30
14170;DHT22;63889;50.596;8.690;2023-04-03T11:05:32;9.30;98.00
14170;DHT22;63889;50.596;8.690;2023-04-03T11:08:05;9.90;97.40
14170;DHT22;63889;50.596;8.690;2023-04-03T11:10:42;10.00;97.20
14170;DHT22;63889;50.596;8.690;2023-04-03T11:13:24;9.80;96.70
14170;DHT22;63889;50.596;8.690;2023-04-03T11:15:53;10.00;95.30
14170;DHT22;63889;50.596;8.690;2023-04-03T11:18:45;10.00;93.90
14170;DHT22;63889;50.596;8.690;2023-04-03T11:24:22;10.10;93.70
14170;DHT22;63889;50.596;8.690;2023-04-03T11:26:49;10.20;92.20
14170;DHT22;63889;50.596;8.690;2023-04-03T11:29:27;10.20;92.50
14170;DHT22;63889;50.596;8.690;2023-04-03T11:32:33;10.20;92.40
14170;DHT22;63889;50.596;8.690;2023-04-03T11:35:04;10.30;92.40
14170;DHT22;63889;50.596;8.690;2023-04-03T11:37:33;10.30;93.60
14170;DHT22;63889;50.596;8.690;2023-04-03T11:40:05;10.40;93.30
14170;DHT22;63889;50.596;8.690;2023-04-03T11:42:40;10.70;93.50
14170;DHT22;63889;50.596;8.690;2023-04-03T11:47:57;12.00;91.40
14170;DHT22;63889;50.596;8.690;2023-04-03T12:13:36;12.20;87.90
14170;DHT22;63889;50.596;8.690;2023-04-03T12:16:03;11.50;85.90
14170;DHT22;63889;50.596;8.690;2023-04-03T12:19:30;11.40;87.00
14170;DHT22;63889;50.596;8.690;2023-04-03T12:37:39;12.10;83.00
14170;DHT22;63889;50.596;8.690;2023-04-03T12:43:38;11.70;84.00
14170;DHT22;63889;50.596;8.690;2023-04-03T12:48:58;12.10;85.20
14170;DHT22;63889;50.596;8.690;2023-04-03T12:51:41;12.80;85.90
14170;DHT22;63889;50.596;8.690;2023-04-03T12:54:37;13.20;82.10
14170;DHT22;63889;50.596;8.690;2023-04-03T12:57:24;13.00;82.30
14170;DHT22;63889;50.596;8.690;2023-04-03T12:59:50;13.30;81.50
14170;DHT22;63889;50.596;8.690;2023-04-03T13:02:29;13.10;81.30
14170;DHT22;63889;50.596;8.690;2023-04-03T13:05:08;13.30;84.80
14170;DHT22;63889;50.596;8.690;2023-04-03T13:07:37;14.10;84.10
14170;DHT22;63889;50.596;8.690;2023-04-03T13:12:33;12.90;78.70
14170;DHT22;63889;50.596;8.690;2023-04-03T13:15:11;12.40;78.60
14170;DHT22;63889;50.596;8.690;2023-04-03T13:17:42;12.50;82.20
14170;DHT22;63889;50.596;8.690;2023-04-03T13:20:29;12.70;80.40
14170;DHT22;63889;50.596;8.690;2023-04-03T13:22:59;13.10;79.80
14170;DHT22;63889;50.596;8.690;2023-04-03T13:25:28;13.40;77.00
14170;DHT22;63889;50.596;8.690;2023-04-03T13:27:55;13.00;76.50
14170;DHT22;63889;50.596;8.690;2023-04-03T13:30:30;12.40;78.10
14170;DHT22;63889;50.596;8.690;2023-04-03T13:32:57;12.40;78.60
14170;DHT22;63889;50.596;8.690;2023-04-03T13:37:57;12.40;77.80
14170;DHT22;63889;50.596;8.690;2023-04-03T13:40:23;12.80;81.20
14170;DHT22;63889;50.596;8.690;2023-04-03T13:43:05;12.50;77.20
14170;DHT22;63889;50.596;8.690;2023-04-03T13:45:33;12.40;79.70
14170;DHT22;63889;50.596;8.690;2023-04-03T13:48:19;13.00;78.70
14170;DHT22;63889;50.596;8.690;2023-04-03T13:51:23;12.70;78.00
14170;DHT22;63889;50.596;8.690;2023-04-03T13:53:49;12.20;78.30
14170;DHT22;63889;50.596;8.690;2023-04-03T13:56:33;11.80;80.30
14170;DHT22;63889;50.596;8.690;2023-04-03T13:59:22;11.70;79.50
14170;DHT22;63889;50.596;8.690;2023-04-03T14:04:32;12.80;76.70
14170;DHT22;63889;50.596;8.690;2023-04-03T14:06:57;13.40;73.50
14170;DHT22;63889;50.596;8.690;2023-04-03T14:09:25;13.70;73.40
14170;DHT22;63889;50.596;8.690;2023-04-03T14:11:55;13.50;74.50
14170;DHT22;63889;50.596;8.690;2023-04-03T14:14:24;13.30;75.50
14170;DHT22;63889;50.596;8.690;2023-04-03T14:16:54;13.70;74.80
14170;DHT22;63889;50.596;8.690;2023-04-03T14:19:26;13.80;74.90
14170;DHT22;63889;50.596;8.690;2023-04-03T14:21:53;13.90;73.20
14170;DHT22;63889;50.596;8.690;2023-04-03T14:24:20;13.90;72.60
14170;DHT22;63889;50.596;8.690;2023-04-03T14:26:47;14.00;73.20
14170;DHT22;63889;50.596;8.690;2023-04-03T14:29:13;13.50;73.30
14170;DHT22;63889;50.596;8.690;2023-04-03T14:31:40;12.80;74.70
14170;DHT22;63889;50.596;8.690;2023-04-03T14:34:06;12.90;75.10
14170;DHT22;63889;50.596;8.690;2023-04-03T14:36:32;12.30;74.80
14170;DHT22;63889;50.596;8.690;2023-04-03T14:38:59;12.40;78.20
14170;DHT22;63889;50.596;8.690;2023-04-03T14:41:26;12.50;76.30
14170;DHT22;63889;50.596;8.690;2023-04-03T14:43:52;12.40;73.80
14170;DHT22;63889;50.596;8.690;2023-04-03T14:46:28;11.80;78.50
14170;DHT22;63889;50.596;8.690;2023-04-03T14:48:55;11.10;75.80
14170;DHT22;63889;50.596;8.690;2023-04-03T14:51:20;10.60;76.90
14170;DHT22;63889;50.596;8.690;2023-04-03T14:53:46;10.70;78.00
14170;DHT22;63889;50.596;8.690;2023-04-03T14:56:18;10.70;79.10
14170;DHT22;63889;50.596;8.690;2023-04-03T14:58:44;10.80;79.30
14170;DHT22;63889;50.596;8.690;2023-04-03T15:01:11;10.60;80.00
14170;DHT22;63889;50.596;8.690;2023-04-03T15:03:37;10.70;79.80
14170;DHT22;63889;50.596;8.690;2023-04-03T15:06:03;10.50;79.90
14170;DHT22;63889;50.596;8.690;2023-04-03T15:08:29;10.50;80.90
14170;DHT22;63889;50.596;8.690;2023-04-03T15:10:55;10.40;82.50
14170;DHT22;63889;50.596;8.690;2023-04-03T15:13:22;10.30;81.20
14170;DHT22;63889;50.596;8.690;2023-04-03T15:15:48;10.40;80.70
14170;DHT22;63889;50.596;8.690;2023-04-03T15:18:23;10.50;80.70
14170;DHT22;63889;50.596;8.690;2023-04-03T15:20:49;10.40;80.50
14170;DHT22;63889;50.596;8.690;2023-04-03T15:23:15;10.20;78.30
14170;DHT22;63889;50.596;8.690;2023-04-03T15:25:46;10.10;79.30
14170;DHT22;63889;50.596;8.690;2023-04-03T15:30:48;10.40;79.50
14170;DHT22;63889;50.596;8.690;2023-04-03T15:33:15;10.40;80.10
14170;DHT22;63889;50.596;8.690;2023-04-03T15:35:41;10.30;79.30
14170;DHT22;63889;50.596;8.690;2023-04-03T15:38:07;10.30;81.40
14170;DHT22;63889;50.596;8.690;2023-04-03T15:40:32;10.10;82.20
14170;DHT22;63889;50.596;8.690;2023-04-03T15:42:58;10.00;80.80
14170;DHT22;63889;50.596;8.690;2023-04-03T15:45:23;9.70;81.60
14170;DHT22;63889;50.596;8.690;2023-04-03T15:47:49;9.50;82.50
14170;DHT22;63889;50.596;8.690;2023-04-03T15:50:15;9.30;82.90
14170;DHT22;63889;50.596;8.690;2023-04-03T15:52:41;9.00;83.70
14170;DHT22;63889;50.596;8.690;2023-04-03T15:55:06;9.00;84.70
14170;DHT22;63889;50.596;8.690;2023-04-03T15:57:32;8.90;85.80
14170;DHT22;63889;50.596;8.690;2023-04-03T15:59:57;9.10;86.10
14170;DHT22;63889;50.596;8.690;2023-04-03T16:02:23;9.10;84.70
14170;DHT22;63889;50.596;8.690;2023-04-03T16:04:53;9.20;83.70
14170;DHT22;63889;50.596;8.690;2023-04-03T16:07:19;9.10;84.00
14170;DHT22;63889;50.596;8.690;2023-04-03T16:09:44;9.10;84.60
14170;DHT22;63889;50.596;8.690;2023-04-03T16:12:10;9.30;85.70
14170;DHT22;63889;50.596;8.690;2023-04-03T16:14:35;9.30;85.20
14170;DHT22;63889;50.596;8.690;2023-04-03T16:17:07;9.20;85.30
14170;DHT22;63889;50.596;8.690;2023-04-03T16:19:33;9.10;85.50
14170;DHT22;63889;50.596;8.690;2023-04-03T16:21:58;8.90;86.20
14170;DHT22;63889;50.596;8.690;2023-04-03T16:24:24;9.20;86.20
14170;DHT22;63889;50.596;8.690;2023-04-03T16:26:50;9.20;84.50
14170;DHT22;63889;50.596;8.690;2023-04-03T16:29:15;9.20;83.10
14170;DHT22;63889;50.596;8.690;2023-04-03T16:31:41;9.00;82.50
14170;DHT22;63889;50.596;8.690;2023-04-03T16:34:06;9.00;83.30
14170;DHT22;63889;50.596;8.690;2023-04-03T16:36:32;8.80;83.20
14170;DHT22;63889;50.596;8.690;2023-04-03T16:38:57;8.80;84.30
14170;DHT22;63889;50.596;8.690;2023-04-03T16:41:23;8.90;86.50
14170;DHT22;63889;50.596;8.690;2023-04-03T16:43:49;9.10;86.20
14170;DHT22;63889;50.596;8.690;2023-04-03T16:46:15;9.10;85.70
14170;DHT22;63889;50.596;8.690;2023-04-03T16:48:41;8.90;85.40
14170;DHT22;63889;50.596;8.690;2023-04-03T16:51:06;8.70;86.70
14170;DHT22;63889;50.596;8.690;2023-04-03T16:53:32;8.80;85.30
14170;DHT22;63889;50.596;8.690;2023-04-03T16:55:58;8.90;84.90
14170;DHT22;63889;50.596;8.690;2023-04-03T16:58:24;9.00;86.90
14170;DHT22;63889;50.596;8.690;2023-04-03T17:00:50;9.10;85.10
14170;DHT22;63889;50.596;8.690;2023-04-03T17:03:15;8.80;85.10
14170;DHT22;63889;50.596;8.690;2023-04-03T17:05:41;8.70;84.80
14170;DHT22;63889;50.596;8.690;2023-04-03T17:08:09;8.50;85.90
14170;DHT22;63889;50.596;8.690;2023-04-03T17:10:35;8.40;87.20
14170;DHT22;63889;50.596;8.690;2023-04-03T17:13:01;8.40;84.60
14170;DHT22;63889;50.596;8.690;2023-04-03T17:15:26;8.50;86.20
14170;DHT22;63889;50.596;8.690;2023-04-03T17:17:52;8.60;86.20
14170;DHT22;63889;50.596;8.690;2023-04-03T17:20:18;8.60;85.20
14170;DHT22;63889;50.596;8.690;2023-04-03T17:22:44;8.50;85.80
14170;DHT22;63889;50.596;8.690;2023-04-03T17:25:10;8.50;85.30
14170;DHT22;63889;50.596;8.690;2023-04-03T17:27:36;8.30;84.90
14170;DHT22;63889;50.596;8.690;2023-04-03T17:30:03;8.20;85.50